Time;durP1;ratioP1;P1;durP2;ratioP2;P2;SDS_P1;SDS_P2;PMS_P1;PMS_P2;Temp;Humidity;BMP_temperature;BMP_pressure;BME280_temperature;BME280_humidity;BME280_pressure;Samples;Min_cycle;Max_cycle;Signal;HPM_P1;HPM_P2
2023/03/13 05:18:59;;;;;;;22.55;12.60;;;;;;;;;;6177141;22;1322242;-64
2023/03/13 05:21:25;;;;;;;22.20;13.50;;;;;;;;;;6243772;23;20006;-59
2023/03/13 05:23:51;;;;;;;33.75;14.00;;;;;;;;;;6244002;23;20035;-74
2023/03/13 05:26:17;;;;;;;29.15;14.75;;;;;;;;;;6216558;23;20000;-58
2023/03/13 05:28:43;;;;;;;30.00;14.75;;;;;;;;;;6244300;23;20047;-67
2023/03/13 05:31:09;;;;;;;31.48;15.00;;;;;;;;;;6243765;23;20375;-66
2023/03/13 05:33:35;;;;;;;25.77;15.55;;;;;;;;;;6243936;23;20057;-58
2023/03/13 05:36:01;;;;;;;29.63;16.38;;;;;;;;;;6244114;23;20082;-58
2023/03/13 05:38:27;;;;;;;32.45;16.88;;;;;;;;;;6243719;23;20031;-61
2023/03/13 05:40:53;;;;;;;28.05;15.77;;;;;;;;;;6244162;23;20027;-60
2023/03/13 05:43:19;;;;;;;26.35;14.70;;;;;;;;;;6243752;23;20424;-64
2023/03/13 05:45:45;;;;;;;30.80;14.48;;;;;;;;;;6244048;23;20078;-61
2023/03/13 05:48:11;;;;;;;29.77;14.75;;;;;;;;;;6243563;23;20035;-62
2023/03/13 05:50:37;;;;;;;31.13;15.13;;;;;;;;;;6243000;23;20012;-61
2023/03/13 05:53:03;;;;;;;44.55;19.42;;;;;;;;;;6242827;23;20000;-62
2023/03/13 05:55:29;;;;;;;35.75;16.65;;;;;;;;;;6242746;23;20444;-79
2023/03/13 05:57:55;;;;;;;37.00;17.33;;;;;;;;;;6242623;23;20019;-61
2023/03/13 06:00:21;;;;;;;34.53;17.48;;;;;;;;;;6242081;23;20004;-75
2023/03/13 06:02:47;;;;;;;40.28;19.13;;;;;;;;;;6242440;23;21033;-59
2023/03/13 06:05:14;;;;;;;35.85;18.00;;;;;;;;;;6242671;23;20004;-59
2023/03/13 06:07:40;;;;;;;37.22;19.73;;;;;;;;;;6242091;23;20090;-83
2023/03/13 06:10:06;;;;;;;38.35;20.95;;;;;;;;;;6242056;23;20698;-59
2023/03/13 06:12:32;;;;;;;38.80;21.13;;;;;;;;;;6242292;23;20000;-64
2023/03/13 06:14:58;;;;;;;44.72;22.50;;;;;;;;;;6242049;23;20048;-59
2023/03/13 06:17:24;;;;;;;45.67;23.08;;;;;;;;;;6242348;23;20000;-58
2023/03/13 06:19:50;;;;;;;38.72;21.30;;;;;;;;;;6225690;23;20012;-58
2023/03/13 06:22:16;;;;;;;41.13;22.15;;;;;;;;;;6212952;23;20035;-86
2023/03/13 06:24:48;;;;;;;44.72;22.42;;;;;;;;;;6213052;23;20067;-65
2023/03/13 06:27:14;;;;;;;46.77;25.40;;;;;;;;;;6212955;23;20020;-63
2023/03/13 06:29:40;;;;;;;43.70;22.55;;;;;;;;;;6212947;23;20012;-61
2023/03/13 06:32:06;;;;;;;33.90;18.45;;;;;;;;;;6213136;23;20000;-62
2023/03/13 06:34:32;;;;;;;36.08;20.13;;;;;;;;;;6212764;23;20004;-60
2023/03/13 06:36:59;;;;;;;33.35;18.48;;;;;;;;;;6212295;23;20029;-60
2023/03/13 06:39:25;;;;;;;30.90;15.23;;;;;;;;;;6212565;23;20005;-63
2023/03/13 06:41:51;;;;;;;24.05;12.80;;;;;;;;;;6211820;23;20398;-76
2023/03/13 06:44:17;;;;;;;16.05;10.35;;;;;;;;;;6211941;23;20437;-59
2023/03/13 06:46:43;;;;;;;16.70;9.75;;;;;;;;;;6212045;23;20001;-62
2023/03/13 06:49:09;;;;;;;23.17;9.30;;;;;;;;;;6212154;23;20013;-62
2023/03/13 06:51:35;;;;;;;16.10;8.82;;;;;;;;;;6212820;23;20009;-59
2023/03/13 06:54:02;;;;;;;17.92;8.88;;;;;;;;;;6212114;23;20058;-71
2023/03/13 06:56:28;;;;;;;17.15;9.35;;;;;;;;;;6212182;23;20004;-61
2023/03/13 06:58:54;;;;;;;16.27;10.13;;;;;;;;;;6212134;23;20001;-64
2023/03/13 07:01:20;;;;;;;20.33;10.70;;;;;;;;;;6212238;23;20020;-61
2023/03/13 07:03:47;;;;;;;17.60;9.85;;;;;;;;;;6212645;23;20374;-76
2023/03/13 07:06:13;;;;;;;15.07;9.50;;;;;;;;;;6211258;23;20675;-60
2023/03/13 07:08:39;;;;;;;16.55;9.23;;;;;;;;;;6211171;23;20012;-61
2023/03/13 07:11:09;;;;;;;16.73;9.10;;;;;;;;;;6213604;23;20428;-63
2023/03/13 07:13:35;;;;;;;17.15;8.73;;;;;;;;;;6213571;23;20008;-65
2023/03/13 07:16:03;;;;;;;15.90;8.55;;;;;;;;;;6214084;23;20008;-62
2023/03/13 07:18:29;;;;;;;18.25;8.65;;;;;;;;;;6213048;23;20005;-69
2023/03/13 07:20:56;;;;;;;14.52;8.73;;;;;;;;;;6213880;23;20429;-61
2023/03/13 07:23:23;;;;;;;17.92;9.52;;;;;;;;;;6214685;23;20005;-61
2023/03/13 07:25:55;;;;;;;14.68;9.07;;;;;;;;;;6213325;23;20001;-69
2023/03/13 07:28:22;;;;;;;16.73;8.43;;;;;;;;;;6213479;23;20036;-70
2023/03/13 07:30:48;;;;;;;16.88;8.93;;;;;;;;;;6213547;23;20013;-73
2023/03/13 07:33:14;;;;;;;15.57;8.43;;;;;;;;;;6213031;23;20015;-68
2023/03/13 07:35:40;;;;;;;15.50;8.73;;;;;;;;;;6213397;23;20001;-60
2023/03/13 07:38:06;;;;;;;19.70;9.68;;;;;;;;;;6213545;23;20090;-64
2023/03/13 07:40:32;;;;;;;19.60;9.93;;;;;;;;;;6214303;23;20436;-61
2023/03/13 07:42:58;;;;;;;22.05;9.88;;;;;;;;;;6214343;23;20072;-60
2023/03/13 07:45:24;;;;;;;18.65;10.57;;;;;;;;;;6214336;23;20096;-60
2023/03/13 07:47:50;;;;;;;20.85;11.00;;;;;;;;;;6213426;23;20009;-69
2023/03/13 07:50:16;;;;;;;17.38;10.15;;;;;;;;;;6212330;23;20314;-63
2023/03/13 07:52:42;;;;;;;19.63;10.15;;;;;;;;;;6212913;23;20009;-64
2023/03/13 07:55:09;;;;;;;19.08;10.85;;;;;;;;;;6212996;23;20005;-64
2023/03/13 07:57:35;;;;;;;20.83;10.70;;;;;;;;;;6212897;23;20035;-62
2023/03/13 08:00:01;;;;;;;21.52;11.18;;;;;;;;;;6212446;23;20066;-68
2023/03/13 08:02:27;;;;;;;23.20;11.25;;;;;;;;;;6212004;23;20012;-65
2023/03/13 08:04:53;;;;;;;18.83;9.68;;;;;;;;;;6212242;23;20012;-71
2023/03/13 08:07:19;;;;;;;19.10;10.23;;;;;;;;;;6212523;23;19996;-64
2023/03/13 08:09:45;;;;;;;20.48;10.88;;;;;;;;;;6213127;23;20005;-64
2023/03/13 08:12:11;;;;;;;14.65;8.57;;;;;;;;;;6214028;23;20008;-72
2023/03/13 08:14:37;;;;;;;14.95;9.05;;;;;;;;;;6212859;23;20005;-63
2023/03/13 08:17:03;;;;;;;15.25;8.07;;;;;;;;;;6213247;23;20024;-64
2023/03/13 08:19:29;;;;;;;14.07;8.38;;;;;;;;;;6212022;23;20326;-65
2023/03/13 08:21:55;;;;;;;12.98;7.65;;;;;;;;;;6212767;23;20020;-63
2023/03/13 08:24:21;;;;;;;12.55;7.50;;;;;;;;;;6212694;23;20026;-63
2023/03/13 08:26:47;;;;;;;13.95;7.75;;;;;;;;;;6212825;23;20032;-63
2023/03/13 08:29:14;;;;;;;13.85;7.65;;;;;;;;;;6212943;23;20410;-67
2023/03/13 08:31:46;;;;;;;12.27;7.10;;;;;;;;;;6212584;23;20000;-64
2023/03/13 08:34:13;;;;;;;13.60;6.90;;;;;;;;;;6212788;23;20031;-64
2023/03/13 08:36:39;;;;;;;12.35;7.25;;;;;;;;;;6212926;23;20146;-64
2023/03/13 08:39:09;;;;;;;11.57;7.07;;;;;;;;;;6212384;23;20063;-64
2023/03/13 08:41:36;;;;;;;14.02;7.20;;;;;;;;;;6186110;23;20345;-70
2023/03/13 08:44:02;;;;;;;10.82;6.57;;;;;;;;;;6212349;23;20008;-64
2023/03/13 08:46:32;;;;;;;11.65;6.30;;;;;;;;;;6213316;23;20001;-63
2023/03/13 08:48:58;;;;;;;12.13;6.20;;;;;;;;;;6212863;23;20016;-63
2023/03/13 08:51:26;;;;;;;13.50;6.80;;;;;;;;;;6212577;23;20008;-62
2023/03/13 08:53:53;;;;;;;11.18;6.10;;;;;;;;;;6213523;23;20012;-62
2023/03/13 08:56:20;;;;;;;14.68;6.90;;;;;;;;;;6212851;23;20433;-62
2023/03/13 08:58:53;;;;;;;8.43;5.57;;;;;;;;;;6213014;23;20008;-64
2023/03/13 09:01:21;;;;;;;17.05;7.35;;;;;;;;;;6212248;23;20005;-64
2023/03/13 09:03:47;;;;;;;10.57;5.93;;;;;;;;;;6212787;23;20329;-64
2023/03/13 09:06:13;;;;;;;14.40;7.63;;;;;;;;;;6212374;23;20317;-62
2023/03/13 09:08:39;;;;;;;12.95;8.02;;;;;;;;;;6211976;23;20376;-62
2023/03/13 09:11:13;;;;;;;15.40;7.20;;;;;;;;;;6212409;23;20004;-74
2023/03/13 09:13:40;;;;;;;14.07;5.95;;;;;;;;;;6212369;23;20008;-62
2023/03/13 09:16:08;;;;;;;16.30;7.82;;;;;;;;;;6212586;23;20005;-63
2023/03/13 09:18:34;;;;;;;10.75;5.80;;;;;;;;;;6212255;23;20087;-66
2023/03/13 09:21:00;;;;;;;9.93;5.95;;;;;;;;;;6211985;23;20071;-62
2023/03/13 09:23:26;;;;;;;14.75;6.25;;;;;;;;;;6212510;23;20004;-62
2023/03/13 09:25:53;;;;;;;10.00;5.78;;;;;;;;;;6211797;23;20008;-63
2023/03/13 09:28:19;;;;;;;10.27;6.50;;;;;;;;;;6211992;23;20496;-62
2023/03/13 09:30:45;;;;;;;11.98;6.45;;;;;;;;;;6212331;23;20008;-62
2023/03/13 09:33:11;;;;;;;11.52;5.93;;;;;;;;;;6211678;23;20444;-62
2023/03/13 09:35:38;;;;;;;10.98;5.72;;;;;;;;;;6211592;23;20068;-62
2023/03/13 09:38:04;;;;;;;10.30;6.20;;;;;;;;;;6212034;23;19997;-63
2023/03/13 09:40:36;;;;;;;10.18;5.28;;;;;;;;;;6212331;23;20001;-64
2023/03/13 09:43:02;;;;;;;11.13;5.65;;;;;;;;;;6212253;23;20317;-68
2023/03/13 09:45:32;;;;;;;8.85;4.95;;;;;;;;;;6212238;23;20008;-62
2023/03/13 09:48:19;;;;;;;6.82;3.80;;;;;;;;;;6211798;23;20051;-62
2023/03/13 09:50:56;;;;;;;6.00;3.65;;;;;;;;;;6201402;23;20424;-66
2023/03/13 09:53:30;;;;;;;7.78;4.45;;;;;;;;;;6212129;23;20051;-77
2023/03/13 09:55:56;;;;;;;6.47;3.90;;;;;;;;;;6211859;23;20000;-63
2023/03/13 09:58:26;;;;;;;8.40;4.40;;;;;;;;;;6211365;23;20005;-74
2023/03/13 10:01:03;;;;;;;6.20;3.65;;;;;;;;;;6211304;23;20333;-62
2023/03/13 10:03:29;;;;;;;6.78;3.63;;;;;;;;;;6211963;23;20013;-64
2023/03/13 10:05:56;;;;;;;9.25;3.80;;;;;;;;;;6212239;23;20015;-61
2023/03/13 10:08:24;;;;;;;6.78;3.20;;;;;;;;;;6211486;23;20013;-61
2023/03/13 10:10:50;;;;;;;7.05;2.70;;;;;;;;;;6211953;23;20007;-67
2023/03/13 10:13:18;;;;;;;8.73;3.53;;;;;;;;;;6211892;23;20067;-61
2023/03/13 10:15:49;;;;;;;4.82;2.60;;;;;;;;;;6211547;23;20076;-70
2023/03/13 10:18:18;;;;;;;6.32;2.67;;;;;;;;;;6211285;23;20012;-66
2023/03/13 10:20:46;;;;;;;4.22;2.75;;;;;;;;;;6211244;23;20036;-60
2023/03/13 10:23:30;;;;;;;4.32;2.30;;;;;;;;;;6184573;23;20009;-62
2023/03/13 10:25:56;;;;;;;7.35;3.03;;;;;;;;;;6211515;23;20055;-61
2023/03/13 10:28:23;;;;;;;6.15;2.78;;;;;;;;;;6185578;23;20016;-70
2023/03/13 10:30:53;;;;;;;4.97;2.83;;;;;;;;;;6212646;23;20000;-63
2023/03/13 10:33:24;;;;;;;5.43;2.90;;;;;;;;;;6211594;23;20005;-61
2023/03/13 10:36:04;;;;;;;5.75;3.20;;;;;;;;;;6212344;23;19996;-61
2023/03/13 10:38:32;;;;;;;7.03;3.45;;;;;;;;;;6211594;23;20009;-66
2023/03/13 10:41:00;;;;;;;7.40;2.80;;;;;;;;;;6211198;23;20012;-61
2023/03/13 10:43:27;;;;;;;5.20;2.90;;;;;;;;;;6211767;23;20028;-75
2023/03/13 10:45:53;;;;;;;5.25;3.25;;;;;;;;;;6211690;23;20001;-61
2023/03/13 10:48:21;;;;;;;4.57;2.72;;;;;;;;;;6211375;23;20103;-60
2023/03/13 10:50:48;;;;;;;5.28;2.78;;;;;;;;;;6211044;23;20059;-63
2023/03/13 10:53:34;;;;;;;4.75;2.60;;;;;;;;;;6211081;23;20083;-62
2023/03/13 10:56:04;;;;;;;6.32;3.03;;;;;;;;;;6211107;23;20012;-60
2023/03/13 10:58:33;;;;;;;8.85;3.25;;;;;;;;;;6211601;23;20024;-65
2023/03/13 11:01:17;;;;;;;6.35;3.25;;;;;;;;;;6211482;23;20087;-62
2023/03/13 11:03:44;;;;;;;5.55;3.17;;;;;;;;;;6211244;23;20000;-69
2023/03/13 11:06:28;;;;;;;7.40;3.40;;;;;;;;;;6211308;23;20046;-60
2023/03/13 11:09:12;;;;;;;8.35;3.08;;;;;;;;;;6211090;23;20019;-62
2023/03/13 11:11:50;;;;;;;7.43;3.03;;;;;;;;;;6211248;23;20091;-61
2023/03/13 11:14:21;;;;;;;8.00;2.70;;;;;;;;;;6211207;23;20066;-64
2023/03/13 11:16:50;;;;;;;5.72;3.08;;;;;;;;;;6211591;23;20102;-69
2023/03/13 11:19:24;;;;;;;5.93;3.50;;;;;;;;;;6210623;23;20022;-62
2023/03/13 11:21:56;;;;;;;6.35;3.40;;;;;;;;;;6211327;23;20013;-62
2023/03/13 11:24:33;;;;;;;5.22;2.90;;;;;;;;;;6211674;23;20012;-63
2023/03/13 11:27:05;;;;;;;5.03;3.17;;;;;;;;;;6212585;23;19996;-65
2023/03/13 11:29:50;;;;;;;7.80;3.42;;;;;;;;;;6210602;23;20021;-62
2023/03/13 11:32:34;;;;;;;5.43;2.90;;;;;;;;;;6211447;23;20001;-59
2023/03/13 11:35:02;;;;;;;5.40;2.95;;;;;;;;;;6211370;23;20060;-70
2023/03/13 11:37:31;;;;;;;4.85;2.83;;;;;;;;;;6211050;23;20089;-62
2023/03/13 11:40:20;;;;;;;5.15;2.90;;;;;;;;;;6211096;23;20001;-59
2023/03/13 11:42:52;;;;;;;7.40;3.53;;;;;;;;;;6210750;23;20015;-63
2023/03/13 11:45:18;;;;;;;;;;;;;;;;;;6211714;23;20004;-61
2023/03/13 11:47:52;;;;;;;5.13;3.00;;;;;;;;;;6210804;23;19915;-63
2023/03/13 11:50:25;;;;;;;6.45;3.15;;;;;;;;;;6209670;23;20024;-61
2023/03/13 11:53:03;;;;;;;7.18;3.78;;;;;;;;;;6210011;23;20005;-61
2023/03/13 11:55:39;;;;;;;8.57;3.13;;;;;;;;;;6211124;23;20005;-61
2023/03/13 11:58:11;;;;;;;5.03;2.90;;;;;;;;;;6212812;23;20051;-60
2023/03/13 12:00:39;;;;;;;5.55;3.45;;;;;;;;;;6212559;23;20080;-61
2023/03/13 12:03:24;;;;;;;7.28;3.38;;;;;;;;;;6213053;23;20001;-62
2023/03/13 12:05:54;;;;;;;6.82;2.97;;;;;;;;;;6212781;23;20000;-62
2023/03/13 12:08:26;;;;;;;4.45;2.65;;;;;;;;;;6213163;23;20017;-61
2023/03/13 12:10:58;;;;;;;6.13;3.17;;;;;;;;;;6212943;23;20401;-61
2023/03/13 12:13:43;;;;;;;4.22;2.28;;;;;;;;;;6212943;23;20080;-61
2023/03/13 12:16:11;;;;;;;4.47;2.63;;;;;;;;;;6213265;23;20004;-61
2023/03/13 12:18:42;;;;;;;6.05;3.17;;;;;;;;;;6213911;23;20000;-70
2023/03/13 12:21:26;;;;;;;4.70;2.70;;;;;;;;;;6213670;23;20036;-77
2023/03/13 12:24:01;;;;;;;5.43;2.40;;;;;;;;;;6213841;23;20388;-78
2023/03/13 12:26:48;;;;;;;9.27;2.70;;;;;;;;;;6214277;23;20011;-64
2023/03/13 12:29:26;;;;;;;5.70;2.85;;;;;;;;;;6212846;23;20376;-61
2023/03/13 12:32:21;;;;;;;5.35;2.83;;;;;;;;;;6212614;23;20264;-68
2023/03/13 12:34:53;;;;;;;7.65;3.20;;;;;;;;;;6150212;23;20013;-62
2023/03/13 12:37:34;;;;;;;5.20;2.72;;;;;;;;;;6149239;23;20010;-62
2023/03/13 12:40:18;;;;;;;8.27;3.17;;;;;;;;;;6149229;23;20709;-64
2023/03/13 12:42:53;;;;;;;6.45;3.08;;;;;;;;;;6149419;23;20010;-64
2023/03/13 12:45:22;;;;;;;5.63;2.97;;;;;;;;;;6149803;23;20009;-68
2023/03/13 12:48:14;;;;;;;5.13;2.60;;;;;;;;;;6150683;23;20101;-66
2023/03/13 12:50:49;;;;;;;6.57;3.30;;;;;;;;;;6150775;23;20448;-64
2023/03/13 12:53:15;;;;;;;6.93;2.95;;;;;;;;;;6150823;23;20469;-69
2023/03/13 12:55:51;;;;;;;8.18;3.45;;;;;;;;;;6151485;23;20422;-70
2023/03/13 12:58:22;;;;;;;7.85;3.28;;;;;;;;;;6150810;23;20013;-63
2023/03/13 13:00:49;;;;;;;5.30;2.75;;;;;;;;;;6151033;23;20010;-61
2023/03/13 13:03:18;;;;;;;7.40;3.47;;;;;;;;;;6149759;23;20400;-64
2023/03/13 13:06:02;;;;;;;6.22;3.50;;;;;;;;;;6149489;23;20006;-64
2023/03/13 13:08:32;;;;;;;5.60;3.10;;;;;;;;;;6150314;23;20017;-64
2023/03/13 13:11:17;;;;;;;7.32;3.53;;;;;;;;;;6175468;23;20008;-63
2023/03/13 13:13:43;;;;;;;5.78;3.55;;;;;;;;;;6212177;23;20008;-61
2023/03/13 13:16:16;;;;;;;6.22;3.65;;;;;;;;;;6211802;23;20080;-63
2023/03/13 13:18:42;;;;;;;5.38;3.40;;;;;;;;;;6211985;23;20131;-59
2023/03/13 13:21:17;;;;;;;7.20;3.72;;;;;;;;;;6212736;23;20016;-64
2023/03/13 13:23:48;;;;;;;6.68;3.42;;;;;;;;;;6213062;23;20011;-66
2023/03/13 13:26:32;;;;;;;8.35;3.28;;;;;;;;;;6211562;23;20417;-63
2023/03/13 13:29:13;;;;;;;8.60;3.20;;;;;;;;;;6212069;23;20736;-63
2023/03/13 13:31:55;;;;;;;7.63;3.50;;;;;;;;;;6211849;23;20004;-63
2023/03/13 13:34:30;;;;;;;8.13;3.08;;;;;;;;;;6213045;23;20075;-67
2023/03/13 13:37:00;;;;;;;5.88;2.97;;;;;;;;;;6208071;23;20075;-62
2023/03/13 13:39:46;;;;;;;6.93;3.03;;;;;;;;;;6211240;23;20007;-62
2023/03/13 13:42:27;;;;;;;6.50;3.20;;;;;;;;;;6212127;23;20028;-61
2023/03/13 13:45:04;;;;;;;6.13;3.10;;;;;;;;;;6211917;23;20028;-65
2023/03/13 13:47:31;;;;;;;7.03;3.38;;;;;;;;;;6211628;23;20001;-61
2023/03/13 13:50:00;;;;;;;5.75;2.88;;;;;;;;;;6211213;23;20019;-61
2023/03/13 13:52:30;;;;;;;5.75;2.70;;;;;;;;;;6213074;23;20324;-62
2023/03/13 13:54:56;;;;;;;4.93;2.70;;;;;;;;;;6212074;23;20308;-72
2023/03/13 13:57:26;;;;;;;5.63;2.78;;;;;;;;;;6212034;23;20004;-62
2023/03/13 14:00:14;;;;;;;5.50;2.70;;;;;;;;;;6211560;23;19997;-74
2023/03/13 14:02:47;;;;;;;5.38;2.70;;;;;;;;;;6212183;23;20067;-61
2023/03/13 14:05:21;;;;;;;4.70;2.58;;;;;;;;;;6211952;23;20001;-62
2023/03/13 14:07:47;;;;;;;6.47;2.75;;;;;;;;;;6212689;23;20009;-61
2023/03/13 14:10:31;;;;;;;5.15;2.92;;;;;;;;;;6213011;23;20016;-60
2023/03/13 14:12:58;;;;;;;11.80;3.20;;;;;;;;;;6212637;23;20048;-60
2023/03/13 14:15:25;;;;;;;9.52;3.75;;;;;;;;;;6212778;23;20078;-62
2023/03/13 14:18:01;;;;;;;7.35;2.53;;;;;;;;;;6212867;23;20417;-59
2023/03/13 14:20:27;;;;;;;12.10;4.78;;;;;;;;;;6212192;23;20078;-60
2023/03/13 14:22:54;;;;;;;6.40;3.20;;;;;;;;;;6212445;23;19997;-62
2023/03/13 14:25:20;;;;;;;5.68;2.97;;;;;;;;;;6211438;23;20413;-60
2023/03/13 14:27:47;;;;;;;6.78;2.85;;;;;;;;;;6212257;23;20051;-60
2023/03/13 14:30:14;;;;;;;7.20;2.63;;;;;;;;;;6212393;23;20005;-62
2023/03/13 14:32:41;;;;;;;7.35;3.53;;;;;;;;;;6212490;23;20007;-62
2023/03/13 14:35:08;;;;;;;6.43;2.80;;;;;;;;;;6212332;23;20001;-60
2023/03/13 14:37:36;;;;;;;6.97;3.30;;;;;;;;;;6210672;23;20028;-63
2023/03/13 14:40:08;;;;;;;5.97;3.20;;;;;;;;;;6212295;23;20364;-61
2023/03/13 14:42:55;;;;;;;7.80;3.20;;;;;;;;;;6212119;23;20444;-61
2023/03/13 14:45:23;;;;;;;6.90;3.65;;;;;;;;;;6212127;23;20001;-61
2023/03/13 14:47:50;;;;;;;7.45;3.08;;;;;;;;;;6210608;23;20025;-62
2023/03/13 14:50:16;;;;;;;7.97;3.20;;;;;;;;;;6211702;23;20272;-61
2023/03/13 14:52:48;;;;;;;12.77;4.70;;;;;;;;;;6211468;23;20059;-62
2023/03/13 14:55:23;;;;;;;5.90;2.67;;;;;;;;;;6212326;23;20088;-61
2023/03/13 14:57:56;;;;;;;10.48;4.75;;;;;;;;;;6212083;23;20104;-62
2023/03/13 15:00:28;;;;;;;7.57;3.80;;;;;;;;;;6212642;23;20028;-71
2023/03/13 15:03:18;;;;;;;7.13;4.05;;;;;;;;;;6211976;23;20012;-65
2023/03/13 15:05:45;;;;;;;7.00;4.45;;;;;;;;;;6212498;23;20013;-62
2023/03/13 15:08:16;;;;;;;8.27;3.90;;;;;;;;;;6211677;23;20036;-67
2023/03/13 15:10:42;;;;;;;10.73;4.63;;;;;;;;;;6212652;23;20044;-62
2023/03/13 15:13:17;;;;;;;9.70;4.43;;;;;;;;;;6212775;23;20031;-62
2023/03/13 15:15:43;;;;;;;10.32;5.22;;;;;;;;;;6211845;23;20009;-61
2023/03/13 15:18:20;;;;;;;11.88;4.50;;;;;;;;;;6212114;23;20009;-61
2023/03/13 15:20:50;;;;;;;8.25;4.25;;;;;;;;;;6211686;23;20159;-62
2023/03/13 15:23:16;;;;;;;9.32;4.65;;;;;;;;;;6211208;23;20032;-63
2023/03/13 15:25:42;;;;;;;9.07;4.85;;;;;;;;;;6211002;23;20005;-64
2023/03/13 15:28:19;;;;;;;11.23;4.65;;;;;;;;;;6210725;23;20344;-71
2023/03/13 15:30:46;;;;;;;13.00;5.43;;;;;;;;;;6212143;23;20355;-68
2023/03/13 15:33:16;;;;;;;10.32;5.40;;;;;;;;;;6213025;23;20011;-65
2023/03/13 15:35:43;;;;;;;15.13;6.70;;;;;;;;;;6213487;23;19997;-61
2023/03/13 15:38:14;;;;;;;11.25;5.70;;;;;;;;;;6212312;23;20015;-61
2023/03/13 15:40:40;;;;;;;9.63;4.90;;;;;;;;;;6213404;23;20075;-61
2023/03/13 15:43:06;;;;;;;15.15;5.22;;;;;;;;;;6213053;23;20051;-64
2023/03/13 15:45:33;;;;;;;12.63;5.55;;;;;;;;;;6213197;23;20056;-66
2023/03/13 15:47:59;;;;;;;14.57;5.50;;;;;;;;;;6212601;23;20494;-67
2023/03/13 15:50:29;;;;;;;21.55;6.40;;;;;;;;;;6213109;23;20111;-71
2023/03/13 15:52:56;;;;;;;10.85;5.68;;;;;;;;;;6212574;23;20063;-71
2023/03/13 15:55:23;;;;;;;19.85;6.93;;;;;;;;;;6213024;23;20111;-70
2023/03/13 15:57:49;;;;;;;14.77;6.70;;;;;;;;;;6212568;23;20337;-66
2023/03/13 16:00:20;;;;;;;14.95;6.93;;;;;;;;;;6213119;23;20009;-64
2023/03/13 16:02:47;;;;;;;13.48;7.00;;;;;;;;;;6212702;23;20008;-61
2023/03/13 16:05:13;;;;;;;17.88;7.90;;;;;;;;;;6212319;23;20009;-61
2023/03/13 16:07:39;;;;;;;15.23;7.75;;;;;;;;;;6212457;23;20046;-71
2023/03/13 16:10:12;;;;;;;21.77;10.73;;;;;;;;;;6212842;23;20005;-61
2023/03/13 16:12:38;;;;;;;15.48;8.00;;;;;;;;;;6212984;23;20468;-70
2023/03/13 16:15:04;;;;;;;12.48;7.03;;;;;;;;;;6213038;23;20015;-61
2023/03/13 16:17:30;;;;;;;16.15;7.28;;;;;;;;;;6212906;23;20329;-63
2023/03/13 16:19:57;;;;;;;12.25;6.65;;;;;;;;;;6211030;23;20448;-65
2023/03/13 16:22:23;;;;;;;11.63;6.75;;;;;;;;;;6212499;23;20028;-61
2023/03/13 16:24:49;;;;;;;15.38;7.15;;;;;;;;;;6212704;23;20016;-62
2023/03/13 16:27:19;;;;;;;13.35;6.65;;;;;;;;;;6211915;23;20007;-71
2023/03/13 16:29:46;;;;;;;21.60;9.60;;;;;;;;;;6212843;23;20066;-62
2023/03/13 16:32:15;;;;;;;18.25;8.43;;;;;;;;;;6212529;23;20325;-62
2023/03/13 16:34:41;;;;;;;18.30;9.25;;;;;;;;;;6212347;23;20055;-62
2023/03/13 16:37:11;;;;;;;19.27;9.15;;;;;;;;;;6212977;23;20004;-62
2023/03/13 16:39:37;;;;;;;27.27;11.18;;;;;;;;;;6212038;23;20004;-61
2023/03/13 16:42:03;;;;;;;20.83;10.60;;;;;;;;;;6212316;23;20042;-71
2023/03/13 16:44:29;;;;;;;24.17;11.07;;;;;;;;;;6213064;23;20405;-60
2023/03/13 16:46:55;;;;;;;18.75;11.48;;;;;;;;;;6212633;23;20440;-62
2023/03/13 16:49:21;;;;;;;21.27;10.88;;;;;;;;;;6212463;23;20047;-62
2023/03/13 16:51:47;;;;;;;23.23;11.77;;;;;;;;;;6212792;23;20005;-61
2023/03/13 16:54:14;;;;;;;24.45;11.40;;;;;;;;;;6213028;23;20078;-62
2023/03/13 16:56:41;;;;;;;23.58;11.43;;;;;;;;;;6213507;23;20008;-62
2023/03/13 16:59:16;;;;;;;22.38;11.35;;;;;;;;;;6212385;23;20546;-73
2023/03/13 17:01:43;;;;;;;23.45;11.90;;;;;;;;;;6212145;23;20009;-62
2023/03/13 17:04:09;;;;;;;24.95;12.23;;;;;;;;;;6212298;23;20071;-64
2023/03/13 17:06:40;;;;;;;26.60;13.15;;;;;;;;;;6212131;23;20005;-62
2023/03/13 17:09:16;;;;;;;32.25;14.55;;;;;;;;;;6211840;23;20020;-63
2023/03/13 17:11:42;;;;;;;30.98;14.10;;;;;;;;;;6212702;23;19996;-64
2023/03/13 17:14:08;;;;;;;31.85;15.15;;;;;;;;;;6212363;23;20036;-62
2023/03/13 17:16:35;;;;;;;27.98;14.27;;;;;;;;;;6212124;23;20016;-62
2023/03/13 17:19:02;;;;;;;33.53;15.02;;;;;;;;;;6212235;23;20005;-64
2023/03/13 17:21:35;;;;;;;33.88;15.52;;;;;;;;;;6213213;23;20017;-73
2023/03/13 17:24:01;;;;;;;37.50;16.13;;;;;;;;;;6211666;23;20012;-66
2023/03/13 17:26:37;;;;;;;40.03;16.63;;;;;;;;;;6211974;23;20051;-62
2023/03/13 17:29:05;;;;;;;41.75;16.65;;;;;;;;;;6211718;23;20020;-62
2023/03/13 17:31:36;;;;;;;38.40;16.60;;;;;;;;;;6211695;23;20034;-72
2023/03/13 17:34:03;;;;;;;39.05;17.85;;;;;;;;;;6184628;23;20012;-62
2023/03/13 17:36:29;;;;;;;38.30;18.15;;;;;;;;;;6212001;23;20012;-62
2023/03/13 17:38:56;;;;;;;40.47;18.63;;;;;;;;;;6211854;23;20004;-62
2023/03/13 17:41:24;;;;;;;37.70;17.88;;;;;;;;;;6211783;23;20080;-61
2023/03/13 17:43:50;;;;;;;39.55;18.73;;;;;;;;;;6211846;23;20016;-65
2023/03/13 17:46:20;;;;;;;36.33;17.98;;;;;;;;;;6211939;23;20100;-64
2023/03/13 17:48:47;;;;;;;29.55;16.27;;;;;;;;;;6211526;23;20012;-62
2023/03/13 17:51:15;;;;;;;26.98;14.60;;;;;;;;;;6211078;23;20001;-62
2023/03/13 17:53:41;;;;;;;26.65;13.18;;;;;;;;;;6210968;23;20028;-70
2023/03/13 17:56:14;;;;;;;28.10;13.07;;;;;;;;;;6211601;23;20001;-66
2023/03/13 17:58:40;;;;;;;25.98;13.02;;;;;;;;;;6211257;23;20072;-69
2023/03/13 18:01:08;;;;;;;25.40;13.70;;;;;;;;;;6211147;23;20003;-62
2023/03/13 18:03:34;;;;;;;26.67;12.13;;;;;;;;;;6211307;23;20080;-70
2023/03/13 18:06:00;;;;;;;25.98;12.45;;;;;;;;;;6211661;23;20063;-68
2023/03/13 18:08:26;;;;;;;25.20;12.52;;;;;;;;;;6211402;23;20462;-61
2023/03/13 18:10:53;;;;;;;23.20;12.38;;;;;;;;;;6211227;23;20500;-62
2023/03/13 18:13:19;;;;;;;26.60;14.13;;;;;;;;;;6210902;23;20024;-63
2023/03/13 18:15:45;;;;;;;28.50;12.50;;;;;;;;;;6211401;23;20011;-62
2023/03/13 18:18:14;;;;;;;23.45;12.45;;;;;;;;;;6211379;23;20004;-70
2023/03/13 18:20:40;;;;;;;24.45;11.45;;;;;;;;;;6210842;23;20392;-61
2023/03/13 18:23:06;;;;;;;23.95;12.20;;;;;;;;;;6210480;23;20484;-69
2023/03/13 18:25:33;;;;;;;26.60;14.20;;;;;;;;;;6210158;23;20032;-70
2023/03/13 18:27:59;;;;;;;24.20;12.40;;;;;;;;;;6208905;23;20020;-61
2023/03/13 18:30:25;;;;;;;25.67;12.70;;;;;;;;;;6211797;23;20313;-62
2023/03/13 18:32:52;;;;;;;22.65;12.27;;;;;;;;;;6211625;23;20339;-61
2023/03/13 18:35:18;;;;;;;25.17;12.77;;;;;;;;;;6185132;23;20013;-61
2023/03/13 18:37:45;;;;;;;25.40;13.20;;;;;;;;;;6212738;23;20000;-65
2023/03/13 18:40:21;;;;;;;26.27;13.57;;;;;;;;;;6212632;23;20053;-65
2023/03/13 18:42:48;;;;;;;26.15;13.38;;;;;;;;;;6212945;23;20022;-65
2023/03/13 18:45:17;;;;;;;23.95;13.27;;;;;;;;;;6212678;23;20009;-62
2023/03/13 18:47:44;;;;;;;27.85;14.95;;;;;;;;;;6212302;23;20004;-63
2023/03/13 18:50:30;;;;;;;25.92;14.35;;;;;;;;;;6212713;23;20076;-63
2023/03/13 18:52:57;;;;;;;25.77;13.05;;;;;;;;;;6212734;23;20392;-62
2023/03/13 18:55:24;;;;;;;26.58;13.98;;;;;;;;;;6213055;23;19997;-62
2023/03/13 18:57:51;;;;;;;24.63;13.82;;;;;;;;;;6212460;23;20028;-72
2023/03/13 19:00:18;;;;;;;26.75;14.07;;;;;;;;;;6212684;23;20589;-62
2023/03/13 19:02:45;;;;;;;27.33;14.70;;;;;;;;;;6212607;23;20012;-62
2023/03/13 19:05:11;;;;;;;28.05;14.38;;;;;;;;;;6213743;23;19996;-70
2023/03/13 19:07:37;;;;;;;28.40;14.60;;;;;;;;;;6215051;23;20000;-62
2023/03/13 19:10:13;;;;;;;28.20;14.27;;;;;;;;;;6214449;23;20032;-62
2023/03/13 19:12:39;;;;;;;28.38;13.82;;;;;;;;;;6214806;23;20083;-62
2023/03/13 19:15:08;;;;;;;26.00;13.98;;;;;;;;;;6214677;23;20011;-62
2023/03/13 19:17:34;;;;;;;30.90;14.18;;;;;;;;;;6214773;23;20005;-63
2023/03/13 19:20:04;;;;;;;25.77;14.45;;;;;;;;;;6214262;23;20436;-63
2023/03/13 19:22:30;;;;;;;25.75;13.50;;;;;;;;;;6214453;23;20058;-72
2023/03/13 19:24:56;;;;;;;23.88;12.68;;;;;;;;;;6214164;23;20001;-62
2023/03/13 19:27:22;;;;;;;27.77;13.52;;;;;;;;;;6214317;23;20000;-63
2023/03/13 19:29:48;;;;;;;21.95;11.77;;;;;;;;;;6214425;23;20020;-62
2023/03/13 19:32:17;;;;;;;22.08;11.23;;;;;;;;;;6214019;23;20004;-70
2023/03/13 19:34:44;;;;;;;21.70;10.30;;;;;;;;;;6214488;23;20031;-62
2023/03/13 19:37:14;;;;;;;20.38;9.65;;;;;;;;;;6214476;23;20040;-64
2023/03/13 19:39:40;;;;;;;17.13;8.90;;;;;;;;;;6214352;23;20000;-63
2023/03/13 19:42:07;;;;;;;19.38;9.50;;;;;;;;;;6214212;23;20004;-62
2023/03/13 19:44:33;;;;;;;23.08;9.88;;;;;;;;;;6214534;23;20029;-62
2023/03/13 19:46:59;;;;;;;20.63;10.15;;;;;;;;;;6214436;23;20058;-62
2023/03/13 19:49:25;;;;;;;24.75;10.73;;;;;;;;;;6214079;23;20083;-62
2023/03/13 19:51:51;;;;;;;21.63;10.50;;;;;;;;;;6214388;23;19996;-71
2023/03/13 19:54:17;;;;;;;21.00;10.50;;;;;;;;;;6214655;23;20382;-62
2023/03/13 19:56:45;;;;;;;24.98;10.93;;;;;;;;;;6214016;23;20444;-73
2023/03/13 19:59:15;;;;;;;20.38;10.20;;;;;;;;;;6213768;23;20032;-63
2023/03/13 20:01:42;;;;;;;23.38;10.85;;;;;;;;;;6214544;23;20019;-62